Bhera Weather



Bhera's Current Weather

Temprature 23.18o clear sky

clear sky

Rain: 0 %

Min Temprature23.18o
Max Temprature23.18o
Humidity57
Wind Speed6.28 m/h
Sun Rise05:05:14
Sun Set19:05:25
Current Time: 24-May-2022 06:53:48
Lat/Lon: 32.4832, 72.9097




Bhera's Geo Location



Bhera's Weather Forecast

Time Overall Temp Min Temp Max Temp Humidity Wind Speed Rain
24-May-2022 (Tue)
08:00:00 clear sky 24.560 24.560 24.560 54 5.92 m/h 0 %
11:00:00 clear sky 26.490 26.490 30.360 47 3.33 m/h 0 %
14:00:00 clear sky 30.810 30.810 33.930 33 3.18 m/h 0 %
17:00:00 clear sky 34.050 34.050 34.050 21 3.03 m/h 0 %
20:00:00 clear sky 29.990 29.990 29.990 28 1.85 m/h 0 %
23:00:00 clear sky 28.600 28.600 28.600 31 0.77 m/h 0 %
25-May-2022 (Wed)
02:00:00 clear sky 27.280 27.280 27.280 34 1.66 m/h 0 %
05:00:00 clear sky 26.560 26.560 26.560 35 1.22 m/h 0 %
08:00:00 clear sky 31.520 31.520 31.520 26 1.75 m/h 0 %
11:00:00 clear sky 36.340 36.340 36.340 18 2.22 m/h 0 %
14:00:00 clear sky 38.320 38.320 38.320 15 2.37 m/h 0 %
17:00:00 clear sky 38.300 38.300 38.300 16 2.55 m/h 0 %
20:00:00 clear sky 33.720 33.720 33.720 22 1.9 m/h 0 %
23:00:00 clear sky 31.570 31.570 31.570 25 1.25 m/h 0 %
26-May-2022 (Thu)
02:00:00 clear sky 30.300 30.300 30.300 27 1.45 m/h 0 %
05:00:00 clear sky 29.150 29.150 29.150 28 0.83 m/h 0 %
08:00:00 clear sky 33.960 33.960 33.960 21 0.88 m/h 0 %
11:00:00 clear sky 39.140 39.140 39.140 15 2.8 m/h 0 %
14:00:00 clear sky 41.850 41.850 41.850 12 2.38 m/h 0 %
17:00:00 clear sky 41.910 41.910 41.910 11 2.66 m/h 0 %
20:00:00 clear sky 36.720 36.720 36.720 15 1.51 m/h 0 %
23:00:00 clear sky 34.220 34.220 34.220 18 0.91 m/h 0 %
27-May-2022 (Fri)
02:00:00 clear sky 32.060 32.060 32.060 20 0.86 m/h 0 %
05:00:00 clear sky 30.150 30.150 30.150 23 1.66 m/h 0 %
08:00:00 clear sky 36.190 36.190 36.190 17 2.57 m/h 0 %
11:00:00 clear sky 42.660 42.660 42.660 10 2.48 m/h 0 %
14:00:00 clear sky 45.410 45.410 45.410 8 2.41 m/h 0 %
17:00:00 clear sky 45.070 45.070 45.070 8 4.67 m/h 0 %
20:00:00 clear sky 38.960 38.960 38.960 13 2.8 m/h 0 %
23:00:00 clear sky 36.130 36.130 36.130 18 2.62 m/h 0 %
28-May-2022 (Sat)
02:00:00 clear sky 34.080 34.080 34.080 22 4.47 m/h 0 %
05:00:00 clear sky 33.320 33.320 33.320 21 6.14 m/h 0 %
08:00:00 clear sky 37.750 37.750 37.750 18 6.55 m/h 0 %
11:00:00 clear sky 43.320 43.320 43.320 15 6.21 m/h 0 %
14:00:00 clear sky 45.960 45.960 45.960 8 7.59 m/h 0 %
17:00:00 clear sky 44.960 44.960 44.960 6 6.41 m/h 0 %
20:00:00 clear sky 38.450 38.450 38.450 9 3.74 m/h 0 %
23:00:00 clear sky 35.000 35.000 35.000 23 7.19 m/h 0 %
29-May-2022 (Sun)
02:00:00 clear sky 32.980 32.980 32.980 26 5.37 m/h 0 %
05:00:00 clear sky 31.490 31.490 31.490 29 5.22 m/h 0 %


Bhera's Tourist Spots

Historical Places in Bhera

Famous Cities (61)